createdAt,value
2022-11-29T00:01:16.023Z,6.26
2022-11-29T00:03:42.795Z,6.22
2022-11-29T00:06:12.475Z,6.27
2022-11-29T00:08:41.456Z,6.23
2022-11-29T00:11:14.341Z,6.22
2022-11-29T00:13:41.031Z,6.19
2022-11-29T00:16:10.585Z,6.28
2022-11-29T00:18:37.879Z,6.27
2022-11-29T00:21:08.753Z,6.24
2022-11-29T00:23:36.086Z,6.14
2022-11-29T00:26:05.097Z,6.21
2022-11-29T00:28:31.886Z,6.18
2022-11-29T00:30:58.687Z,6.25
2022-11-29T00:33:25.493Z,6.26
2022-11-29T00:35:52.125Z,6.30
2022-11-29T00:38:18.839Z,6.35
2022-11-29T00:40:51.202Z,6.43
2022-11-29T00:43:17.908Z,6.39
2022-11-29T00:45:44.557Z,6.33
2022-11-29T00:48:11.223Z,6.32
2022-11-29T00:50:37.807Z,6.33
2022-11-29T00:53:04.472Z,6.39
2022-11-29T00:55:30.992Z,6.34
2022-11-29T00:57:57.663Z,6.30
2022-11-29T01:00:24.491Z,6.29
2022-11-29T01:02:51.231Z,6.23
2022-11-29T01:05:17.904Z,6.26
2022-11-29T01:07:44.662Z,6.31
2022-11-29T01:10:11.562Z,6.34
2022-11-29T01:12:39.707Z,6.30
2022-11-29T01:15:07.441Z,6.28
2022-11-29T01:17:38.866Z,6.15
2022-11-29T01:20:08.265Z,6.14
2022-11-29T01:22:35.870Z,6.18
2022-11-29T01:25:03.421Z,6.06
2022-11-29T01:27:30.480Z,6.08
2022-11-29T01:29:57.398Z,6.14
2022-11-29T01:32:23.952Z,6.11
2022-11-29T01:34:50.681Z,6.25
2022-11-29T01:37:17.542Z,6.28
2022-11-29T01:39:44.287Z,6.26
2022-11-29T01:42:11.868Z,6.07
2022-11-29T01:44:38.472Z,6.08
2022-11-29T01:47:05.147Z,6.13
2022-11-29T01:49:37.398Z,6.05
2022-11-29T01:52:13.257Z,6.07
2022-11-29T01:54:43.981Z,6.15
2022-11-29T01:57:11.379Z,6.20
2022-11-29T01:59:48.630Z,6.18
2022-11-29T02:02:20.479Z,6.17
2022-11-29T02:04:48.414Z,6.14
2022-11-29T02:07:15.556Z,6.11
2022-11-29T02:09:42.315Z,6.19
2022-11-29T02:12:44.446Z,6.19
2022-11-29T02:15:28.383Z,6.15
2022-11-29T02:17:58.156Z,6.14
2022-11-29T02:20:54.934Z,6.16
2022-11-29T02:23:39.605Z,6.20
2022-11-29T02:26:27.797Z,6.19
2022-11-29T02:29:19.058Z,6.20
2022-11-29T02:32:19.487Z,6.11
2022-11-29T02:35:16.743Z,6.14
2022-11-29T02:38:20.323Z,6.11
2022-11-29T02:41:15.567Z,6.07
2022-11-29T02:43:57.904Z,5.98
2022-11-29T02:46:49.958Z,5.90
2022-11-29T02:49:28.016Z,5.86
2022-11-29T02:52:06.350Z,5.81
2022-11-29T02:54:52.155Z,5.89
2022-11-29T02:57:31.105Z,5.96
2022-11-29T03:00:14.798Z,5.97
2022-11-29T03:03:05.346Z,5.98
2022-11-29T03:05:53.298Z,5.94
2022-11-29T03:08:37.695Z,5.94
2022-11-29T03:11:18.572Z,5.98
2022-11-29T03:14:11.944Z,6.06
2022-11-29T03:17:22.972Z,6.06
2022-11-29T03:20:13.668Z,6.01
2022-11-29T03:22:43.094Z,5.95
2022-11-29T03:25:19.444Z,5.95
2022-11-29T03:28:04.906Z,5.86
2022-11-29T03:30:34.569Z,5.82
2022-11-29T03:33:03.918Z,5.69
2022-11-29T03:35:47.907Z,5.71
2022-11-29T03:38:39.771Z,5.79
2022-11-29T03:41:12.408Z,5.85
2022-11-29T03:43:46.751Z,5.84
2022-11-29T03:46:44.092Z,5.91
2022-11-29T03:49:22.848Z,5.83
2022-11-29T03:52:05.802Z,5.89
2022-11-29T03:54:49.492Z,5.86
2022-11-29T03:57:25.706Z,5.93
2022-11-29T04:00:04.447Z,5.80
2022-11-29T04:02:52.910Z,5.75
2022-11-29T04:05:24.082Z,5.73
2022-11-29T04:08:16.859Z,5.77
2022-11-29T04:11:17.554Z,5.77
2022-11-29T04:14:17.963Z,5.84
2022-11-29T04:17:03.602Z,5.90
2022-11-29T04:19:36.126Z,5.92
2022-11-29T04:22:59.592Z,5.89
2022-11-29T04:25:38.371Z,5.85
2022-11-29T04:28:23.202Z,5.78
2022-11-29T04:31:19.062Z,5.81
2022-11-29T04:34:04.086Z,5.81
2022-11-29T04:36:58.363Z,5.75
2022-11-29T04:39:50.720Z,5.83
2022-11-29T04:43:09.786Z,5.84
2022-11-29T04:45:58.011Z,5.87
2022-11-29T04:48:40.934Z,5.80
2022-11-29T04:51:41.607Z,5.79
2022-11-29T04:54:17.443Z,5.79
2022-11-29T04:56:57.039Z,5.78
2022-11-29T04:59:52.659Z,5.87
2022-11-29T05:02:29.214Z,5.92
2022-11-29T05:05:21.695Z,5.91
2022-11-29T05:07:57.483Z,5.96
2022-11-29T05:10:53.072Z,5.97
2022-11-29T05:13:26.635Z,5.94
2022-11-29T05:15:53.222Z,5.94
2022-11-29T05:18:44.590Z,5.96
2022-11-29T05:21:34.527Z,5.94
2022-11-29T05:24:26.079Z,6.05
2022-11-29T05:27:00.353Z,5.97
2022-11-29T05:29:38.783Z,5.91
2022-11-29T05:32:15.272Z,5.89
2022-11-29T05:35:00.447Z,5.88
2022-11-29T05:37:43.343Z,5.91
2022-11-29T05:40:34.881Z,5.95
2022-11-29T05:43:43.590Z,5.97
2022-11-29T05:46:42.395Z,5.98
2022-11-29T05:49:24.350Z,5.94
2022-11-29T05:52:11.391Z,5.92
2022-11-29T05:54:55.372Z,5.90
2022-11-29T05:57:31.369Z,5.94
2022-11-29T06:00:02.056Z,5.91
2022-11-29T06:02:53.721Z,5.90
2022-11-29T06:05:20.469Z,5.88
2022-11-29T06:07:58.634Z,5.84
2022-11-29T06:10:32.775Z,5.82
2022-11-29T06:13:23.377Z,5.82
2022-11-29T06:16:12.516Z,5.83
2022-11-29T06:18:56.918Z,5.92
2022-11-29T06:21:40.292Z,5.94
2022-11-29T06:24:39.674Z,5.88
2022-11-29T06:27:32.700Z,5.87
2022-11-29T06:30:09.328Z,5.92
2022-11-29T06:32:54.431Z,5.93
2022-11-29T06:35:35.596Z,5.92
2022-11-29T06:38:29.851Z,5.89
2022-11-29T06:41:02.144Z,5.91
2022-11-29T06:43:30.361Z,5.83
2022-11-29T06:46:23.022Z,5.83
2022-11-29T06:49:01.937Z,5.83
2022-11-29T06:51:37.117Z,5.86
2022-11-29T06:54:35.251Z,5.85
2022-11-29T06:57:09.917Z,5.86
2022-11-29T07:00:00.602Z,5.93
2022-11-29T07:02:36.042Z,5.93
2022-11-29T07:05:31.586Z,5.91
2022-11-29T07:08:03.936Z,5.92
2022-11-29T07:10:34.672Z,5.93
2022-11-29T07:13:01.682Z,5.97
2022-11-29T07:15:28.736Z,5.98
2022-11-29T07:18:18.855Z,5.95
2022-11-29T07:21:14.254Z,5.99
2022-11-29T07:24:00.142Z,5.96
2022-11-29T07:26:41.806Z,5.97
2022-11-29T07:29:34.499Z,5.95
2022-11-29T07:32:23.744Z,5.98
2022-11-29T07:35:02.423Z,6.02
2022-11-29T07:37:48.848Z,6.03
2022-11-29T07:40:22.442Z,5.99
2022-11-29T07:42:58.019Z,6.02
2022-11-29T07:45:33.364Z,6.01
2022-11-29T07:48:00.335Z,6.03
2022-11-29T07:50:28.837Z,6.06
2022-11-29T07:52:56.744Z,6.03
2022-11-29T07:55:25.760Z,6.09
2022-11-29T07:57:53.192Z,6.15
2022-11-29T08:00:20.989Z,6.14
2022-11-29T08:02:48.833Z,6.17
2022-11-29T08:05:15.756Z,6.19
2022-11-29T08:07:42.623Z,6.17
2022-11-29T08:10:15.839Z,6.19
2022-11-29T08:12:50.142Z,6.20
2022-11-29T08:15:19.056Z,6.22
2022-11-29T08:17:46.282Z,6.23
2022-11-29T08:20:14.179Z,6.13
2022-11-29T08:22:41.215Z,6.20
2022-11-29T08:25:08.538Z,6.16
2022-11-29T08:27:36.761Z,6.22
2022-11-29T08:30:05.428Z,6.15
2022-11-29T08:32:32.044Z,6.18
2022-11-29T08:34:58.774Z,6.18
2022-11-29T08:37:25.382Z,6.24
2022-11-29T08:39:52.055Z,6.28
2022-11-29T08:42:18.727Z,6.29
2022-11-29T08:44:45.744Z,6.30
2022-11-29T08:47:30.859Z,6.30
2022-11-29T08:50:03.366Z,6.28
2022-11-29T08:52:54.313Z,6.21
2022-11-29T08:55:24.319Z,6.27
2022-11-29T08:57:52.028Z,6.26
2022-11-29T09:00:19.497Z,6.30
2022-11-29T09:02:46.093Z,6.33
2022-11-29T09:05:12.815Z,6.30
2022-11-29T09:07:39.620Z,6.28
2022-11-29T09:10:08.352Z,6.28
2022-11-29T09:12:36.555Z,6.30
2022-11-29T09:15:09.191Z,6.36
2022-11-29T09:17:36.123Z,6.39
2022-11-29T09:20:03.008Z,6.36
2022-11-29T09:22:29.652Z,6.36
2022-11-29T09:24:56.459Z,6.36
2022-11-29T09:27:23.103Z,6.43
2022-11-29T09:29:49.659Z,6.45
2022-11-29T09:32:16.508Z,6.41
2022-11-29T09:34:43.360Z,6.43
2022-11-29T09:37:10.454Z,6.34
2022-11-29T09:39:37.192Z,6.38
2022-11-29T09:42:21.463Z,6.40
2022-11-29T09:44:48.369Z,6.44
2022-11-29T09:47:31.885Z,6.48
2022-11-29T09:50:16.970Z,6.45
2022-11-29T09:53:01.578Z,6.52
2022-11-29T09:56:13.378Z,6.49
2022-11-29T09:59:01.196Z,6.49
2022-11-29T10:01:37.666Z,6.49
2022-11-29T10:04:12.255Z,6.54
2022-11-29T10:06:43.359Z,6.57
2022-11-29T10:09:30.864Z,6.60
2022-11-29T10:12:06.022Z,6.41
2022-11-29T10:15:00.688Z,6.49
2022-11-29T10:17:36.998Z,6.39
2022-11-29T10:20:11.100Z,6.32
2022-11-29T10:22:49.451Z,6.41
2022-11-29T10:25:41.936Z,6.48
2022-11-29T10:28:14.139Z,6.43
2022-11-29T10:30:42.682Z,6.49
2022-11-29T10:33:26.951Z,6.50
2022-11-29T10:35:59.292Z,6.50
2022-11-29T10:38:31.101Z,6.54
2022-11-29T10:41:06.039Z,6.58
2022-11-29T10:43:32.827Z,6.61
2022-11-29T10:46:00.296Z,6.64
2022-11-29T10:48:31.846Z,6.68
2022-11-29T10:50:58.786Z,6.61
2022-11-29T10:53:32.898Z,6.63
2022-11-29T10:56:08.837Z,6.66
2022-11-29T10:58:36.056Z,6.68
2022-11-29T11:01:08.686Z,6.69
2022-11-29T11:03:52.971Z,6.67
2022-11-29T11:06:21.391Z,6.71
2022-11-29T11:08:52.379Z,6.74
2022-11-29T11:11:33.146Z,6.78
2022-11-29T11:14:06.601Z,6.78
2022-11-29T11:16:37.344Z,6.77
2022-11-29T11:19:33.019Z,6.83
2022-11-29T11:22:01.895Z,6.81
2022-11-29T11:24:32.151Z,6.85
2022-11-29T11:27:00.390Z,6.87
2022-11-29T11:29:44.788Z,6.88
2022-11-29T11:32:19.483Z,6.82
2022-11-29T11:35:20.788Z,6.84
2022-11-29T11:37:56.678Z,6.91
2022-11-29T11:40:29.864Z,6.94
2022-11-29T11:42:59.352Z,6.92
2022-11-29T11:45:33.579Z,6.94
2022-11-29T11:48:05.751Z,7.00
2022-11-29T11:50:57.598Z,7.01
2022-11-29T11:53:30.443Z,7.05
2022-11-29T11:56:01.355Z,7.03
2022-11-29T11:58:51.719Z,7.03
2022-11-29T12:01:30.661Z,7.09
2022-11-29T12:04:20.195Z,7.16
2022-11-29T12:06:56.201Z,7.02
2022-11-29T12:09:56.674Z,7.10
2022-11-29T12:12:29.874Z,7.18
2022-11-29T12:15:24.488Z,7.09
2022-11-29T12:18:14.669Z,7.09
2022-11-29T12:20:56.506Z,7.14
2022-11-29T12:23:34.819Z,7.16
2022-11-29T12:26:13.688Z,7.21
2022-11-29T12:28:47.329Z,7.13
2022-11-29T12:31:28.929Z,7.10
2022-11-29T12:34:22.990Z,7.16
2022-11-29T12:36:55.622Z,7.23
2022-11-29T12:39:34.903Z,7.18
2022-11-29T12:42:35.981Z,7.19
2022-11-29T12:45:30.305Z,7.20
2022-11-29T12:48:31.062Z,7.21
2022-11-29T12:51:03.626Z,7.27
2022-11-29T12:54:02.546Z,7.25
2022-11-29T12:56:40.395Z,7.29
2022-11-29T12:59:31.453Z,7.32
2022-11-29T13:02:50.584Z,7.21
2022-11-29T13:05:37.294Z,7.25
2022-11-29T13:08:16.250Z,7.27
2022-11-29T13:11:23.596Z,7.33
2022-11-29T13:14:20.284Z,7.31
2022-11-29T13:16:59.127Z,7.33
2022-11-29T13:19:51.074Z,7.32
2022-11-29T13:22:49.070Z,7.35
2022-11-29T13:25:20.886Z,7.33
2022-11-29T13:27:58.258Z,7.32
2022-11-29T13:30:26.079Z,7.37
2022-11-29T13:33:03.032Z,7.39
2022-11-29T13:35:43.956Z,7.35
2022-11-29T13:38:22.156Z,7.31
2022-11-29T13:40:56.013Z,7.34
2022-11-29T13:43:50.606Z,7.35
2022-11-29T13:46:33.093Z,7.38
2022-11-29T13:49:00.005Z,7.38
2022-11-29T13:51:37.448Z,7.37
2022-11-29T13:54:31.991Z,7.38
2022-11-29T13:57:09.464Z,7.36
2022-11-29T13:59:45.786Z,7.37
2022-11-29T14:02:43.400Z,7.31
2022-11-29T14:05:25.338Z,7.35
2022-11-29T14:08:24.541Z,7.33
2022-11-29T14:10:56.642Z,7.41
2022-11-29T14:13:48.252Z,7.35
2022-11-29T14:16:20.965Z,7.38
2022-11-29T14:19:02.451Z,7.37
2022-11-29T14:22:03.411Z,7.27
2022-11-29T14:24:35.175Z,7.32
2022-11-29T14:27:12.392Z,7.26
2022-11-29T14:29:48.615Z,7.28
2022-11-29T14:32:28.404Z,7.26
2022-11-29T14:35:03.913Z,7.27
2022-11-29T14:37:36.682Z,7.28
2022-11-29T14:40:17.948Z,7.26
2022-11-29T14:42:48.691Z,7.28
2022-11-29T14:45:34.423Z,7.25
2022-11-29T14:48:01.761Z,7.33
2022-11-29T14:50:33.034Z,7.31
2022-11-29T14:53:00.167Z,7.28
2022-11-29T14:55:26.749Z,7.21
2022-11-29T14:57:57.528Z,7.19
2022-11-29T15:00:27.084Z,7.23
2022-11-29T15:03:07.671Z,7.14
2022-11-29T15:05:41.541Z,7.13
2022-11-29T15:08:16.739Z,7.07
2022-11-29T15:10:51.744Z,7.03
2022-11-29T15:14:05.751Z,7.04
2022-11-29T15:17:04.461Z,7.03
2022-11-29T15:19:55.791Z,7.01
2022-11-29T15:22:28.610Z,7.02
2022-11-29T15:24:59.674Z,6.99
2022-11-29T15:27:26.538Z,6.96
2022-11-29T15:29:53.214Z,6.99
2022-11-29T15:32:27.325Z,7.02
2022-11-29T15:34:56.224Z,7.01
2022-11-29T15:37:31.792Z,7.03
2022-11-29T15:40:03.418Z,7.06
2022-11-29T15:42:43.007Z,7.13
2022-11-29T15:45:31.344Z,7.01
2022-11-29T15:48:17.453Z,6.99
2022-11-29T15:50:47.152Z,7.00
2022-11-29T15:53:20.468Z,6.94
2022-11-29T15:55:50.618Z,6.89
2022-11-29T15:58:19.220Z,6.95
2022-11-29T16:00:49.696Z,6.93
2022-11-29T16:03:25.437Z,6.96
2022-11-29T16:06:06.278Z,6.95
2022-11-29T16:08:42.718Z,6.94
2022-11-29T16:11:17.051Z,6.93
2022-11-29T16:14:02.758Z,6.96
2022-11-29T16:16:32.854Z,6.95
2022-11-29T16:19:28.932Z,7.00
2022-11-29T16:22:03.512Z,6.97
2022-11-29T16:24:34.214Z,6.96
2022-11-29T16:27:01.887Z,7.01
2022-11-29T16:29:36.614Z,7.00
2022-11-29T16:32:23.577Z,7.01
2022-11-29T16:34:50.544Z,6.96
2022-11-29T16:37:21.980Z,6.95
2022-11-29T16:39:52.395Z,6.95
2022-11-29T16:42:30.443Z,7.00
2022-11-29T16:45:06.027Z,6.98
2022-11-29T16:47:46.501Z,7.06
2022-11-29T16:50:19.374Z,7.01
2022-11-29T16:52:48.842Z,6.99
2022-11-29T16:55:18.539Z,6.95
2022-11-29T16:57:46.772Z,6.89
2022-11-29T17:00:29.647Z,7.00
2022-11-29T17:02:56.867Z,6.98
2022-11-29T17:05:23.662Z,7.00
2022-11-29T17:07:50.545Z,6.93
2022-11-29T17:10:21.282Z,6.99
2022-11-29T17:12:48.601Z,6.93
2022-11-29T17:15:15.391Z,6.92
2022-11-29T17:17:43.545Z,6.92
2022-11-29T17:20:12.062Z,6.90
2022-11-29T17:22:40.545Z,6.91
2022-11-29T17:25:07.636Z,6.87
2022-11-29T17:27:35.271Z,6.85
2022-11-29T17:30:01.953Z,6.80
2022-11-29T17:32:28.961Z,6.69
2022-11-29T17:34:55.552Z,6.67
2022-11-29T17:37:22.318Z,6.57
2022-11-29T17:39:49.226Z,6.56
2022-11-29T17:42:16.045Z,6.53
2022-11-29T17:44:42.759Z,6.45
2022-11-29T17:47:09.625Z,6.50
2022-11-29T17:49:36.320Z,6.56
2022-11-29T17:52:03.142Z,6.56
2022-11-29T17:54:33.468Z,6.51
2022-11-29T17:57:00.927Z,6.54
2022-11-29T17:59:27.663Z,6.57
2022-11-29T18:01:54.585Z,6.60
2022-11-29T18:04:21.464Z,6.61
2022-11-29T18:06:49.836Z,6.57
2022-11-29T18:09:18.502Z,6.51
2022-11-29T18:11:49.434Z,6.49
2022-11-29T18:14:19.995Z,6.52
2022-11-29T18:16:46.867Z,6.59
2022-11-29T18:19:19.576Z,6.59
2022-11-29T18:21:46.881Z,6.54
2022-11-29T18:24:13.439Z,6.57
2022-11-29T18:26:40.403Z,6.49
2022-11-29T18:29:07.648Z,6.36
2022-11-29T18:31:36.898Z,6.46
2022-11-29T18:34:13.066Z,6.51
2022-11-29T18:36:45.699Z,6.48
2022-11-29T18:39:15.785Z,6.55
2022-11-29T18:41:44.407Z,6.52
2022-11-29T18:44:13.872Z,6.53
2022-11-29T18:46:43.538Z,6.42
2022-11-29T18:49:13.136Z,6.47
2022-11-29T18:51:42.982Z,6.48
2022-11-29T18:54:10.397Z,6.43
2022-11-29T18:56:38.287Z,6.45
2022-11-29T18:59:10.160Z,6.48
2022-11-29T19:01:41.236Z,6.50
2022-11-29T19:04:09.866Z,6.48
2022-11-29T19:06:39.947Z,6.52
2022-11-29T19:09:12.283Z,6.52
2022-11-29T19:11:39.242Z,6.61
2022-11-29T19:14:11.569Z,6.65
2022-11-29T19:16:43.402Z,6.68
2022-11-29T19:19:10.055Z,6.62
2022-11-29T19:21:36.793Z,6.54
2022-11-29T19:24:06.831Z,6.58
2022-11-29T19:26:34.610Z,6.59
2022-11-29T19:29:02.426Z,6.62
2022-11-29T19:31:29.416Z,6.65
2022-11-29T19:33:57.909Z,6.72
2022-11-29T19:36:27.366Z,6.73
2022-11-29T19:38:55.150Z,6.72
2022-11-29T19:41:28.056Z,6.76
2022-11-29T19:43:59.278Z,6.71
2022-11-29T19:46:29.578Z,6.69
2022-11-29T19:48:58.489Z,6.62
2022-11-29T19:51:26.894Z,6.63
2022-11-29T19:53:55.832Z,6.64
2022-11-29T19:56:23.545Z,6.60
2022-11-29T19:58:51.317Z,6.63
2022-11-29T20:01:20.503Z,6.59
2022-11-29T20:03:47.274Z,6.49
2022-11-29T20:06:14.276Z,6.55
2022-11-29T20:08:41.521Z,6.45
2022-11-29T20:11:18.255Z,6.29
2022-11-29T20:13:47.911Z,6.38
2022-11-29T20:16:17.058Z,6.31
2022-11-29T20:18:50.420Z,6.28
2022-11-29T20:21:31.127Z,6.26
2022-11-29T20:24:02.702Z,6.29
2022-11-29T20:26:30.995Z,6.26
2022-11-29T20:28:57.548Z,6.28
2022-11-29T20:31:24.392Z,6.21
2022-11-29T20:33:53.209Z,6.35
2022-11-29T20:36:35.178Z,6.29
2022-11-29T20:39:08.762Z,6.34
2022-11-29T20:42:07.779Z,6.31
2022-11-29T20:44:39.722Z,6.41
2022-11-29T20:47:17.857Z,6.50
2022-11-29T20:49:45.079Z,6.50
2022-11-29T20:53:09.040Z,6.55
2022-11-29T20:55:42.494Z,6.53
2022-11-29T20:58:13.051Z,6.55
2022-11-29T21:00:39.753Z,6.63
2022-11-29T21:03:06.859Z,6.62
2022-11-29T21:05:33.626Z,6.64
2022-11-29T21:08:00.318Z,6.54
2022-11-29T21:10:26.988Z,6.56
2022-11-29T21:12:53.934Z,6.46
2022-11-29T21:15:21.108Z,6.49
2022-11-29T21:17:48.192Z,6.50
2022-11-29T21:20:26.233Z,6.54
2022-11-29T21:23:00.938Z,6.54
2022-11-29T21:25:27.653Z,6.60
2022-11-29T21:27:54.955Z,6.58
2022-11-29T21:30:24.040Z,6.58
2022-11-29T21:32:51.378Z,6.64
2022-11-29T21:35:18.269Z,6.61
2022-11-29T21:37:45.571Z,6.65
2022-11-29T21:40:14.159Z,6.64
2022-11-29T21:42:41.121Z,6.66
2022-11-29T21:45:13.466Z,6.64
2022-11-29T21:47:42.265Z,6.68
2022-11-29T21:50:09.235Z,6.68
2022-11-29T21:52:35.971Z,6.66
2022-11-29T21:55:02.808Z,6.67
2022-11-29T21:57:29.562Z,6.64
2022-11-29T21:59:56.173Z,6.57
2022-11-29T22:02:23.249Z,6.69
2022-11-29T22:04:50.012Z,6.68
2022-11-29T22:07:16.832Z,6.69
2022-11-29T22:09:43.556Z,6.69
2022-11-29T22:12:32.324Z,6.72
2022-11-29T22:14:57.075Z,6.81
2022-11-29T22:17:23.822Z,6.81
2022-11-29T22:19:50.495Z,6.83
2022-11-29T22:22:17.255Z,6.79
2022-11-29T22:24:44.208Z,6.75
2022-11-29T22:27:12.305Z,6.73
2022-11-29T22:29:38.947Z,6.71
2022-11-29T22:32:06.237Z,6.72
2022-11-29T22:34:33.036Z,6.72
2022-11-29T22:36:59.656Z,6.74
2022-11-29T22:39:26.619Z,6.73
2022-11-29T22:41:54.969Z,6.73
2022-11-29T22:44:25.618Z,6.71
2022-11-29T22:46:52.386Z,6.72
2022-11-29T22:49:19.173Z,6.78
2022-11-29T22:51:45.959Z,6.77
2022-11-29T22:54:15.457Z,6.75
2022-11-29T22:56:43.984Z,6.76
2022-11-29T22:59:10.938Z,6.81
2022-11-29T23:01:39.722Z,6.81
2022-11-29T23:04:10.103Z,6.77
2022-11-29T23:06:38.644Z,6.75
2022-11-29T23:09:19.779Z,6.79
2022-11-29T23:11:51.026Z,6.79
2022-11-29T23:14:18.232Z,6.71
2022-11-29T23:16:44.917Z,6.68
2022-11-29T23:19:11.760Z,6.66
2022-11-29T23:21:39.924Z,6.67
2022-11-29T23:24:06.935Z,6.67
2022-11-29T23:26:40.294Z,6.70
2022-11-29T23:29:10.918Z,6.72
2022-11-29T23:31:37.969Z,6.77
2022-11-29T23:34:05.436Z,6.74
2022-11-29T23:36:32.338Z,6.70
2022-11-29T23:38:59.054Z,6.71
2022-11-29T23:41:25.980Z,6.67
2022-11-29T23:43:52.777Z,6.64
2022-11-29T23:46:22.249Z,6.62
2022-11-29T23:48:49.341Z,6.54
2022-11-29T23:51:17.313Z,6.60
2022-11-29T23:53:44.410Z,6.63
2022-11-29T23:56:16.463Z,6.61
2022-11-29T23:58:44.291Z,6.64
